Time;durP1;ratioP1;P1;durP2;ratioP2;P2;SDS_P1;SDS_P2;PMS_P1;PMS_P2;Temp;Humidity;BMP_temperature;BMP_pressure;BME280_temperature;BME280_humidity;BME280_pressure;Samples;Min_cycle;Max_cycle;Signal;HPM_P1;HPM_P2
2023/04/25 00:02:11;;;;;;;25.95;7.05;;;;;;;5.32;100.00;100575.66;4997219;28;20057;-72
2023/04/25 00:04:38;;;;;;;22.77;6.93;;;;;;;5.25;100.00;100565.41;4990994;28;20141;-72
2023/04/25 00:07:06;;;;;;;21.85;6.85;;;;;;;5.33;100.00;100577.28;4991944;28;21771;-71
2023/04/25 00:09:32;;;;;;;23.45;6.55;;;;;;;5.35;100.00;100572.16;5002720;28;20518;-71
2023/04/25 00:12:01;;;;;;;22.58;6.75;;;;;;;5.33;100.00;100578.03;4999315;28;20052;-73
2023/04/25 00:14:27;;;;;;;21.88;6.97;;;;;;;5.39;100.00;100582.03;4996254;28;20614;-75
2023/04/25 00:16:54;;;;;;;20.40;6.60;;;;;;;5.40;100.00;100578.09;5005096;28;20057;-72
2023/04/25 00:19:21;;;;;;;20.58;6.00;;;;;;;5.38;100.00;100579.66;5008844;28;20049;-72
2023/04/25 00:21:47;;;;;;;17.40;5.95;;;;;;;5.45;100.00;100590.72;4995728;28;20062;-72
2023/04/25 00:24:14;;;;;;;21.25;5.53;;;;;;;5.39;100.00;100584.78;4990779;28;20057;-72
2023/04/25 00:26:40;;;;;;;19.02;6.28;;;;;;;5.38;100.00;100577.69;5000440;28;20496;-72
2023/04/25 00:29:07;;;;;;;20.27;5.78;;;;;;;5.38;100.00;100579.66;4996466;28;20049;-74
2023/04/25 00:31:33;;;;;;;22.90;5.50;;;;;;;5.38;100.00;100583.22;5004665;28;20065;-72
2023/04/25 00:34:00;;;;;;;22.00;5.97;;;;;;;5.43;100.00;100582.06;5009045;28;20065;-73
2023/04/25 00:36:27;;;;;;;15.05;4.45;;;;;;;5.38;100.00;100585.97;5007138;28;20045;-72
2023/04/25 00:38:54;;;;;;;17.10;4.93;;;;;;;5.41;100.00;100587.16;5004379;28;20050;-73
2023/04/25 00:41:21;;;;;;;17.40;5.25;;;;;;;5.39;100.00;100581.22;5003297;28;20042;-72
2023/04/25 00:43:49;;;;;;;21.90;6.50;;;;;;;5.40;100.00;100577.31;5002307;28;20069;-73
2023/04/25 00:46:16;;;;;;;16.20;4.72;;;;;;;5.40;100.00;100586.34;4994690;28;20574;-72
2023/04/25 00:48:43;;;;;;;18.10;5.78;;;;;;;5.46;100.00;100584.00;4999217;28;20050;-73
2023/04/25 00:51:15;;;;;;;23.35;5.97;;;;;;;5.45;100.00;100586.00;5004479;28;20491;-73
2023/04/25 00:53:42;;;;;;;20.90;6.10;;;;;;;5.41;100.00;100574.16;5019382;28;20066;-71
2023/04/25 00:56:09;;;;;;;16.20;4.93;;;;;;;5.44;100.00;100581.63;5000141;28;20446;-72
2023/04/25 00:58:37;;;;;;;17.92;5.43;;;;;;;5.49;100.00;100586.00;5002350;28;20422;-72
2023/04/25 01:01:03;;;;;;;19.75;5.93;;;;;;;5.47;100.00;100589.16;4989535;28;20100;-72
2023/04/25 01:03:33;;;;;;;15.98;5.07;;;;;;;5.47;100.00;100583.63;5001007;28;20101;-71
2023/04/25 01:05:59;;;;;;;16.48;5.55;;;;;;;5.54;100.00;100591.94;5007678;28;20050;-72
2023/04/25 01:08:26;;;;;;;18.20;5.55;;;;;;;5.49;100.00;100592.31;5001365;28;20058;-73
2023/04/25 01:10:53;;;;;;;15.52;4.80;;;;;;;5.54;100.00;100596.69;4991697;28;20092;-73
2023/04/25 01:13:19;;;;;;;17.75;5.25;;;;;;;5.54;100.00;100594.69;4990545;28;20057;-73
2023/04/25 01:15:46;;;;;;;14.50;4.88;;;;;;;5.49;100.00;100595.06;4999188;28;20406;-71
2023/04/25 01:18:12;;;;;;;16.13;5.35;;;;;;;5.50;100.00;100590.38;4994374;28;20050;-73
2023/04/25 01:20:41;;;;;;;17.80;5.72;;;;;;;5.57;100.00;100588.41;4992877;28;20147;-73
2023/04/25 01:23:08;;;;;;;13.50;4.95;;;;;;;5.52;100.00;100594.31;4997526;28;20351;-72
2023/04/25 01:25:35;;;;;;;18.13;4.85;;;;;;;5.61;100.00;100591.97;5001865;28;20060;-72
2023/04/25 01:28:02;;;;;;;19.83;5.50;;;;;;;5.64;100.00;100593.19;5004808;28;20045;-72
2023/04/25 01:30:29;;;;;;;15.85;4.97;;;;;;;5.48;100.00;100595.47;5003165;28;20057;-73
2023/04/25 01:32:56;;;;;;;18.00;5.53;;;;;;;5.44;100.00;100591.91;5003886;28;20060;-73
2023/04/25 01:35:23;;;;;;;16.95;4.65;;;;;;;5.41;100.00;100590.72;4990729;28;20563;-72
2023/04/25 01:37:51;;;;;;;16.60;5.55;;;;;;;5.40;100.00;100597.38;4990879;28;20420;-72
2023/04/25 01:40:19;;;;;;;2.75;1.40;;;;;;;5.42;100.00;100597.78;4996853;28;20046;-72
2023/04/25 01:42:45;;;;;;;16.20;4.80;;;;;;;5.51;100.00;100597.44;5005252;28;20057;-72
2023/04/25 01:45:12;;;;;;;2.78;0.95;;;;;;;5.44;100.00;100603.69;4999732;28;20050;-74
2023/04/25 01:47:39;;;;;;;15.88;5.35;;;;;;;5.46;100.00;100598.59;4989023;28;20719;-73
2023/04/25 01:50:07;;;;;;;16.55;4.50;;;;;;;5.52;100.00;100602.59;4991581;28;20042;-73
2023/04/25 01:52:34;;;;;;;18.17;5.43;;;;;;;5.51;100.00;100614.00;5003104;28;20058;-72
2023/04/25 01:55:02;;;;;;;16.63;4.93;;;;;;;5.51;100.00;100614.00;5001562;28;20056;-72
2023/04/25 01:57:28;;;;;;;20.45;5.13;;;;;;;5.51;100.00;100617.56;4988101;28;20054;-72
2023/04/25 02:00:03;;;;;;;2.58;1.25;;;;;;;5.43;100.00;100618.66;4992669;28;20052;-72
2023/04/25 02:02:30;;;;;;;11.38;3.38;;;;;;;5.39;100.00;100623.38;4997620;28;20093;-72
2023/04/25 02:04:57;;;;;;;21.58;6.78;;;;;;;5.39;100.00;100619.81;4992418;28;20077;-74
2023/04/25 02:07:23;;;;;;;21.58;5.68;;;;;;;5.42;100.00;100636.41;4994255;28;20046;-73
2023/04/25 02:09:50;;;;;;;20.02;6.95;;;;;;;5.44;100.00;100634.03;5003125;28;20534;-72
2023/04/25 02:12:16;;;;;;;4.05;1.38;;;;;;;5.34;100.00;100629.28;4999240;28;20054;-72
2023/04/25 02:14:43;;;;;;;23.25;7.53;;;;;;;5.44;100.00;100636.00;5003402;28;20053;-73
2023/04/25 02:17:09;;;;;;;13.43;5.40;;;;;;;5.34;100.00;100633.97;5007979;28;20045;-74
2023/04/25 02:19:36;;;;;;;23.75;8.45;;;;;;;5.44;100.00;100638.78;5007997;28;20050;-71
2023/04/25 02:22:03;;;;;;;22.30;8.40;;;;;;;5.39;100.00;100630.84;5000391;28;20524;-74
2023/04/25 02:24:29;;;;;;;9.00;3.70;;;;;;;5.36;100.00;100637.13;4992369;28;20096;-73
2023/04/25 02:26:56;;;;;;;21.88;7.45;;;;;;;5.34;100.00;100639.50;4996025;28;20056;-73
2023/04/25 02:29:22;;;;;;;23.33;8.38;;;;;;;5.41;100.00;100636.78;4994500;28;20061;-73
2023/04/25 02:31:49;;;;;;;16.42;7.13;;;;;;;5.36;100.00;100637.94;4998225;28;20056;-74
2023/04/25 02:34:16;;;;;;;20.85;6.32;;;;;;;5.34;100.00;100643.06;4995107;28;20190;-72
2023/04/25 02:36:42;;;;;;;19.30;8.18;;;;;;;5.36;100.00;100642.63;4995894;28;20041;-73
2023/04/25 02:39:10;;;;;;;23.02;7.95;;;;;;;5.33;100.00;100638.69;4997319;28;20612;-72
2023/04/25 02:41:36;;;;;;;22.20;9.15;;;;;;;5.36;100.00;100648.16;4995944;28;20056;-72
2023/04/25 02:44:03;;;;;;;27.23;9.63;;;;;;;5.33;100.00;100657.22;5004384;28;20500;-73
2023/04/25 02:46:29;;;;;;;20.55;8.23;;;;;;;5.36;100.00;100646.19;4999608;28;20060;-73
2023/04/25 02:49:06;;;;;;;19.35;8.32;;;;;;;5.35;100.00;100658.41;5007731;28;20573;-72
2023/04/25 02:51:32;;;;;;;18.65;7.85;;;;;;;5.33;100.00;100658.00;5007470;28;20116;-73
2023/04/25 02:53:59;;;;;;;22.35;9.20;;;;;;;5.34;100.00;100650.53;4995992;28;20074;-73
2023/04/25 02:56:26;;;;;;;25.85;8.52;;;;;;;5.32;100.00;100650.91;4996592;28;20054;-73
2023/04/25 02:58:53;;;;;;;19.63;7.25;;;;;;;5.29;100.00;100651.66;5005000;28;20560;-72
2023/04/25 03:01:20;;;;;;;23.90;8.15;;;;;;;5.30;100.00;100655.22;4992392;28;20079;-74
2023/04/25 03:03:46;;;;;;;1.13;0.98;;;;;;;5.21;100.00;100652.78;4993007;28;20054;-74
2023/04/25 03:06:14;;;;;;;26.25;7.47;;;;;;;5.31;100.00;100651.28;5000396;28;20050;-72
2023/04/25 03:08:41;;;;;;;20.23;7.00;;;;;;;5.31;100.00;100646.56;5002399;28;20050;-72
2023/04/25 03:11:07;;;;;;;20.33;7.13;;;;;;;5.31;100.00;100656.78;5005659;28;20054;-71
2023/04/25 03:13:34;;;;;;;16.50;6.18;;;;;;;5.31;100.00;100657.59;5001054;28;20245;-71
2023/04/25 03:16:00;;;;;;;16.27;6.55;;;;;;;5.26;100.00;100655.19;4991054;28;20081;-71
2023/04/25 03:18:27;;;;;;;20.88;7.07;;;;;;;5.31;100.00;100645.78;5000943;28;20111;-72
2023/04/25 03:20:54;;;;;;;21.70;6.72;;;;;;;5.30;100.00;100655.22;5007539;28;20064;-73
2023/04/25 03:23:21;;;;;;;22.17;8.43;;;;;;;5.35;100.00;100658.41;4995389;28;20505;-73
2023/04/25 03:25:47;;;;;;;20.52;7.10;;;;;;;5.35;100.00;100661.16;4987837;28;20054;-74
2023/04/25 03:28:14;;;;;;;19.90;7.13;;;;;;;5.36;100.00;100659.19;5001998;28;20064;-73
2023/04/25 03:30:40;;;;;;;22.20;6.97;;;;;;;5.37;100.00;100658.81;4998709;28;20089;-73
2023/04/25 03:33:07;;;;;;;23.27;8.73;;;;;;;5.40;100.00;100660.78;5001719;28;20509;-73
2023/04/25 03:35:34;;;;;;;25.75;8.65;;;;;;;5.36;100.00;100664.69;4987816;28;20050;-73
2023/04/25 03:38:00;;;;;;;19.90;7.43;;;;;;;5.41;100.00;100675.38;5006603;28;20053;-71
2023/04/25 03:40:27;;;;;;;17.30;5.15;;;;;;;5.31;100.00;100674.13;5011231;28;20052;-71
2023/04/25 03:42:53;;;;;;;5.25;2.15;;;;;;;5.28;100.00;100693.41;4999919;28;20472;-74
2023/04/25 03:45:20;;;;;;;14.15;4.63;;;;;;;5.27;100.00;100694.56;4994918;28;20060;-71
2023/04/25 03:47:46;;;;;;;14.80;3.53;;;;;;;5.17;100.00;100698.81;5006433;28;20048;-71
2023/04/25 03:50:14;;;;;;;13.13;4.53;;;;;;;5.09;100.00;100697.16;4998080;28;20050;-71
2023/04/25 03:52:40;;;;;;;15.18;3.95;;;;;;;5.03;100.00;100693.94;4990469;28;20580;-72
2023/04/25 03:55:07;;;;;;;13.10;3.83;;;;;;;4.87;100.00;100698.91;4997042;28;20046;-73
2023/04/25 03:57:34;;;;;;;15.93;4.25;;;;;;;4.77;100.00;100698.84;4990314;28;20066;-73
2023/04/25 04:00:01;;;;;;;10.82;3.60;;;;;;;4.74;100.00;100705.88;4998596;28;20069;-71
2023/04/25 04:02:27;;;;;;;15.65;4.22;;;;;;;4.67;100.00;100694.00;4999856;28;20042;-73
2023/04/25 04:04:56;;;;;;;16.13;3.97;;;;;;;4.60;100.00;100688.44;4989929;28;20054;-73
2023/04/25 04:07:23;;;;;;;13.27;4.10;;;;;;;4.64;100.00;100692.81;5002077;28;20074;-72
2023/04/25 04:09:49;;;;;;;14.82;4.18;;;;;;;4.59;100.00;100690.38;4991142;28;20059;-72
2023/04/25 04:12:16;;;;;;;14.93;3.75;;;;;;;4.52;100.00;100689.50;4995151;28;20050;-74
2023/04/25 04:14:42;;;;;;;14.82;4.22;;;;;;;4.46;100.00;100685.53;4996325;28;20045;-71
2023/04/25 04:17:09;;;;;;;18.90;4.20;;;;;;;4.43;100.00;100686.28;4993668;28;20060;-71
2023/04/25 04:19:36;;;;;;;12.50;3.78;;;;;;;4.44;100.00;100693.34;5000407;28;20050;-69
2023/04/25 04:22:02;;;;;;;13.15;3.65;;;;;;;4.42;100.00;100699.25;4994583;28;20075;-74
2023/04/25 04:24:29;;;;;;;17.25;5.03;;;;;;;4.42;100.00;100692.94;4996018;28;20062;-73
2023/04/25 04:26:56;;;;;;;18.80;4.55;;;;;;;4.38;100.00;100703.91;4994364;28;20054;-72
2023/04/25 04:29:22;;;;;;;15.93;4.28;;;;;;;4.38;100.00;100698.41;5009752;28;20053;-72
2023/04/25 04:31:50;;;;;;;16.15;4.72;;;;;;;4.38;100.00;100701.16;5005376;28;20072;-72
2023/04/25 04:34:18;;;;;;;15.00;4.63;;;;;;;4.39;100.00;100711.00;5005056;28;20046;-72
2023/04/25 04:36:48;;;;;;;13.27;4.30;;;;;;;4.36;100.00;100709.00;4989950;28;20124;-72
2023/04/25 04:39:14;;;;;;;20.63;4.68;;;;;;;4.33;100.00;100720.75;4992915;28;20120;-72
2023/04/25 04:41:42;;;;;;;14.25;4.85;;;;;;;4.25;100.00;100724.59;5000948;28;20059;-73
2023/04/25 04:44:09;;;;;;;14.68;4.53;;;;;;;4.26;100.00;100719.91;4992815;28;20129;-72
2023/04/25 04:47:06;;;;;;;22.10;5.38;;;;;;;4.28;100.00;100723.03;5005085;28;20061;-72
2023/04/25 04:49:39;;;;;;;14.27;4.60;;;;;;;4.28;100.00;100736.81;4992439;28;20148;-72
2023/04/25 04:52:06;;;;;;;17.20;4.80;;;;;;;4.30;100.00;100740.75;4999167;28;20056;-72
2023/04/25 04:54:35;;;;;;;16.95;5.60;;;;;;;4.29;100.00;100735.66;4995781;28;20124;-73
2023/04/25 04:57:01;;;;;;;17.92;4.55;;;;;;;4.32;100.00;100743.16;5005818;28;20079;-73
2023/04/25 04:59:28;;;;;;;24.38;5.45;;;;;;;4.37;100.00;100751.09;4992098;28;20049;-72
2023/04/25 05:01:54;;;;;;;22.40;6.05;;;;;;;4.42;100.00;100750.75;4990594;28;20065;-72
2023/04/25 05:04:21;;;;;;;17.98;4.97;;;;;;;4.43;100.00;100744.09;5001318;28;20053;-72
2023/04/25 05:06:47;;;;;;;16.15;5.28;;;;;;;4.41;100.00;100746.41;4999655;28;20054;-72
2023/04/25 05:09:15;;;;;;;20.23;5.55;;;;;;;4.43;100.00;100753.13;4989299;28;20104;-71
2023/04/25 05:11:41;;;;;;;15.38;4.70;;;;;;;4.40;100.00;100745.59;4992799;28;20054;-68
2023/04/25 05:14:08;;;;;;;15.98;5.20;;;;;;;4.43;100.00;100752.34;4996601;28;20057;-71
2023/04/25 05:16:35;;;;;;;17.13;4.95;;;;;;;4.50;100.00;100755.19;4989656;28;20057;-71
2023/04/25 05:19:01;;;;;;;17.98;5.65;;;;;;;4.53;100.00;100757.97;4989068;28;20042;-71
2023/04/25 05:21:28;;;;;;;24.67;5.45;;;;;;;4.52;100.00;100761.88;4999236;28;20563;-69
2023/04/25 05:23:54;;;;;;;17.35;5.15;;;;;;;4.56;100.00;100759.19;4993064;28;20057;-71
2023/04/25 05:26:21;;;;;;;15.68;4.88;;;;;;;4.52;100.00;100766.59;5007267;28;20049;-72
2023/04/25 05:28:47;;;;;;;25.15;6.30;;;;;;;4.61;100.00;100776.16;5005258;28;20061;-72
2023/04/25 05:31:14;;;;;;;22.45;5.85;;;;;;;4.69;100.00;100780.59;5001510;28;20050;-71
2023/04/25 05:33:40;;;;;;;20.13;5.68;;;;;;;4.77;100.00;100779.47;4994572;28;20065;-72
2023/04/25 05:36:07;;;;;;;17.00;5.90;;;;;;;4.72;100.00;100771.56;4991990;28;20046;-72
2023/04/25 05:38:34;;;;;;;18.85;5.38;;;;;;;4.85;100.00;100783.91;4989811;28;20049;-72
2023/04/25 05:41:00;;;;;;;22.58;5.38;;;;;;;4.81;100.00;100782.28;4989475;28;20054;-72
2023/04/25 05:43:27;;;;;;;25.15;5.78;;;;;;;4.99;100.00;100792.31;4998385;28;20492;-72
2023/04/25 05:45:53;;;;;;;23.20;6.45;;;;;;;4.98;100.00;100789.94;5001838;28;20057;-72
2023/04/25 05:48:20;;;;;;;15.75;5.20;;;;;;;5.03;100.00;100793.16;4995735;28;20104;-73
2023/04/25 05:50:47;;;;;;;24.95;6.20;;;;;;;5.07;100.00;100782.94;4997363;28;20050;-72
2023/04/25 05:53:14;;;;;;;18.13;5.50;;;;;;;5.18;100.00;100796.03;4988265;28;20602;-72
2023/04/25 05:55:40;;;;;;;22.83;6.13;;;;;;;5.21;100.00;100804.38;4996586;28;20424;-71
2023/04/25 05:58:07;;;;;;;20.05;5.68;;;;;;;5.29;100.00;100808.00;4995210;28;20425;-71
2023/04/25 06:00:33;;;;;;;20.67;5.57;;;;;;;5.30;100.00;100812.34;4987980;28;20082;-73
2023/04/25 06:03:00;;;;;;;19.10;4.80;;;;;;;5.24;100.00;100811.91;4993129;28;20126;-73
2023/04/25 06:05:28;;;;;;;18.35;6.43;;;;;;;5.32;100.00;100812.75;4997965;28;20054;-72
2023/04/25 06:07:55;;;;;;;23.75;6.97;;;;;;;5.31;100.00;100811.16;4989604;28;20054;-72
2023/04/25 06:10:22;;;;;;;24.70;6.78;;;;;;;5.30;100.00;100826.91;4998236;28;20065;-72
2023/04/25 06:12:49;;;;;;;20.58;6.32;;;;;;;5.29;100.00;100824.53;4995860;28;20145;-71
2023/04/25 06:15:15;;;;;;;18.02;5.10;;;;;;;5.29;100.00;100828.09;4994313;28;20133;-72
2023/04/25 06:17:54;;;;;;;19.48;5.65;;;;;;;5.38;100.00;100825.03;4992371;28;20054;-74
2023/04/25 06:20:23;;;;;;;27.35;6.72;;;;;;;5.49;100.00;100832.22;4990761;28;20057;-75
2023/04/25 06:22:50;;;;;;;27.48;6.75;;;;;;;5.62;100.00;100832.72;5000122;28;20133;-74
2023/04/25 06:25:17;;;;;;;31.17;6.68;;;;;;;5.74;100.00;100833.22;4995910;28;20541;-75
2023/04/25 06:27:43;;;;;;;33.65;6.30;;;;;;;5.87;100.00;100831.75;4994418;28;20076;-73
2023/04/25 06:30:11;;;;;;;32.88;5.68;;;;;;;5.81;100.00;100822.22;4993771;28;20054;-76
2023/04/25 06:32:39;;;;;;;22.00;5.45;;;;;;;5.91;100.00;100834.53;4998034;28;20738;-76
2023/04/25 06:35:06;;;;;;;23.23;6.85;;;;;;;5.99;100.00;100833.41;5003567;28;20054;-76
2023/04/25 06:37:32;;;;;;;22.30;4.88;;;;;;;6.04;100.00;100828.31;5003462;28;20049;-76
2023/04/25 06:39:58;;;;;;;19.75;5.75;;;;;;;6.10;100.00;100837.84;4995277;28;20049;-75
2023/04/25 06:42:25;;;;;;;21.02;6.20;;;;;;;6.20;100.00;100837.09;5003891;28;20144;-76
2023/04/25 06:44:52;;;;;;;27.40;6.35;;;;;;;6.26;100.00;100838.34;5004239;28;20050;-75
2023/04/25 06:47:18;;;;;;;28.05;7.10;;;;;;;6.21;100.00;100837.91;5000041;28;20156;-70
2023/04/25 06:49:45;;;;;;;25.55;6.57;;;;;;;6.23;100.00;100843.81;4997487;28;20049;-74
2023/04/25 06:52:11;;;;;;;27.90;6.55;;;;;;;6.30;100.00;100849.38;5004957;28;20049;-75
2023/04/25 06:54:38;;;;;;;15.40;4.90;;;;;;;6.28;100.00;100849.78;4997840;28;20061;-72
2023/04/25 06:57:04;;;;;;;27.48;6.95;;;;;;;6.36;100.00;100854.19;4998713;28;20054;-75
2023/04/25 06:59:32;;;;;;;23.58;6.28;;;;;;;6.20;100.00;100845.41;5005873;28;20401;-75
2023/04/25 07:01:59;;;;;;;22.80;6.43;;;;;;;6.29;100.00;100845.06;4994984;28;20588;-77
2023/04/25 07:04:26;;;;;;;19.70;6.90;;;;;;;6.31;100.00;100849.00;4993646;28;20393;-75
2023/04/25 07:06:52;;;;;;;21.92;5.95;;;;;;;6.40;100.00;100851.41;5006523;28;20464;-74
2023/04/25 07:09:19;;;;;;;18.27;4.72;;;;;;;6.42;100.00;100855.38;4994495;28;20524;-76
2023/04/25 07:11:46;;;;;;;21.38;5.60;;;;;;;6.43;100.00;100847.88;4989393;28;20060;-74
2023/04/25 07:14:12;;;;;;;21.67;5.25;;;;;;;6.49;100.00;100863.69;4996271;28;20402;-73
2023/04/25 07:16:38;;;;;;;20.92;6.13;;;;;;;6.53;100.00;100860.97;4991659;28;20057;-75
2023/04/25 07:19:05;;;;;;;17.65;4.25;;;;;;;6.56;100.00;100857.44;5008599;28;20042;-74
2023/04/25 07:21:32;;;;;;;16.75;4.80;;;;;;;6.58;100.00;100857.81;5002109;28;20526;-74
2023/04/25 07:23:59;;;;;;;25.10;4.90;;;;;;;6.64;100.00;100868.13;5011052;28;20094;-74
2023/04/25 07:26:25;;;;;;;9.18;3.67;;;;;;;6.60;100.00;100870.09;5004277;28;20046;-74
2023/04/25 07:28:52;;;;;;;10.18;2.20;;;;;;;6.60;100.00;100867.34;4993560;28;20046;-72
2023/04/25 07:31:18;;;;;;;19.60;4.03;;;;;;;6.76;100.00;100878.84;4997995;28;20513;-75
2023/04/25 07:33:45;;;;;;;18.30;4.20;;;;;;;6.73;100.00;100865.81;4990791;28;20061;-74
2023/04/25 07:36:12;;;;;;;21.35;4.70;;;;;;;6.85;100.00;100878.47;5003849;28;20045;-74
2023/04/25 07:38:39;;;;;;;14.20;3.75;;;;;;;6.93;100.00;100880.88;4999238;28;20385;-75
2023/04/25 07:41:05;;;;;;;11.45;3.40;;;;;;;7.06;100.00;100884.91;5006017;28;20051;-74
2023/04/25 07:43:32;;;;;;;14.30;3.92;;;;;;;7.12;100.00;100891.66;5001034;28;20064;-77
2023/04/25 07:45:59;;;;;;;15.18;3.97;;;;;;;7.18;100.00;100887.34;4998377;28;20378;-75
2023/04/25 07:48:25;;;;;;;22.60;4.38;;;;;;;7.16;100.00;100884.16;5002305;28;20038;-73
2023/04/25 07:50:52;;;;;;;15.75;3.30;;;;;;;7.29;100.00;100892.88;4991728;28;20085;-74
2023/04/25 07:53:18;;;;;;;11.15;3.30;;;;;;;7.27;100.00;100895.28;4998525;28;20452;-76
2023/04/25 07:55:45;;;;;;;16.10;3.22;;;;;;;7.40;100.00;100900.03;4998945;28;20056;-75
2023/04/25 07:58:12;;;;;;;18.30;4.65;;;;;;;7.40;100.00;100905.56;4992341;28;20060;-76
2023/04/25 08:00:38;;;;;;;16.33;3.15;;;;;;;7.40;100.00;100902.78;4999707;28;20157;-75
2023/04/25 08:03:06;;;;;;;9.55;2.05;;;;;;;7.51;100.00;100902.84;5000893;28;20053;-75
2023/04/25 08:05:33;;;;;;;15.15;2.85;;;;;;;7.70;100.00;100904.44;5008872;28;20062;-74
2023/04/25 08:08:00;;;;;;;1.23;1.13;;;;;;;7.44;100.00;100906.34;4998466;28;20157;-75
2023/04/25 08:10:27;;;;;;;8.10;2.22;;;;;;;7.70;100.00;100916.28;4996744;28;20046;-77
2023/04/25 08:12:53;;;;;;;9.90;2.38;;;;;;;7.68;100.00;100915.09;4999345;28;20057;-75
2023/04/25 08:15:20;;;;;;;5.95;1.73;;;;;;;7.80;100.00;100923.03;4999000;28;20061;-74
2023/04/25 08:17:46;;;;;;;11.57;2.53;;;;;;;7.79;100.00;100938.03;4996809;28;20137;-75
2023/04/25 08:20:13;;;;;;;16.05;2.90;;;;;;;7.74;100.00;100927.38;4991750;28;20046;-75
2023/04/25 08:22:40;;;;;;;5.43;1.75;;;;;;;7.73;100.00;100936.88;4995220;28;20648;-75
2023/04/25 08:25:07;;;;;;;14.05;3.00;;;;;;;7.88;100.00;100935.69;5009130;28;20045;-75
2023/04/25 08:27:33;;;;;;;12.27;2.40;;;;;;;7.97;100.00;100939.66;5009734;28;20056;-76
2023/04/25 08:30:00;;;;;;;13.25;2.53;;;;;;;8.09;100.00;100936.50;5001886;28;20505;-75
2023/04/25 08:32:26;;;;;;;13.68;2.70;;;;;;;8.19;100.00;100946.81;4997163;28;20045;-76
2023/04/25 08:34:56;;;;;;;7.63;1.55;;;;;;;8.11;100.00;100941.66;5002334;28;20068;-77
2023/04/25 08:37:22;;;;;;;8.63;2.42;;;;;;;8.19;100.00;100943.22;4996875;28;20058;-76
2023/04/25 08:39:52;;;;;;;8.45;2.22;;;;;;;8.18;100.00;100944.41;5001364;28;20071;-77
2023/04/25 08:42:21;;;;;;;24.25;5.30;;;;;;;8.35;100.00;100951.94;5004014;28;20069;-76
2023/04/25 08:44:48;;;;;;;15.05;3.67;;;;;;;8.40;100.00;100957.06;5003044;28;20050;-77
2023/04/25 08:47:15;;;;;;;15.23;3.78;;;;;;;8.39;100.00;100964.59;4995576;28;20844;-77
2023/04/25 08:49:45;;;;;;;15.00;3.15;;;;;;;8.58;100.00;100966.16;5002179;28;20054;-75
2023/04/25 08:52:13;;;;;;;11.32;2.65;;;;;;;8.71;100.00;100967.38;4996086;28;20054;-76
2023/04/25 08:54:48;;;;;;;13.82;2.72;;;;;;;8.73;100.00;100962.22;5005700;28;20534;-77
2023/04/25 08:57:15;;;;;;;13.73;3.20;;;;;;;8.95;100.00;100969.31;4997842;28;20050;-76
2023/04/25 08:59:45;;;;;;;17.95;3.38;;;;;;;9.03;100.00;100974.44;4993891;28;20072;-76
2023/04/25 09:02:17;;;;;;;10.63;2.42;;;;;;;9.12;100.00;100976.78;4997419;28;20125;-75
2023/04/25 09:04:44;;;;;;;10.20;2.42;;;;;;;9.14;100.00;100980.72;4999971;28;20057;-77
2023/04/25 09:07:11;;;;;;;11.10;3.45;;;;;;;9.21;100.00;100988.22;4998015;28;20049;-76
2023/04/25 09:09:39;;;;;;;18.83;3.22;;;;;;;9.19;100.00;100983.06;5005697;28;20046;-75
2023/04/25 09:12:05;;;;;;;11.00;2.50;;;;;;;9.17;100.00;100981.91;4994172;28;20050;-75
2023/04/25 09:14:32;;;;;;;9.70;2.65;;;;;;;9.24;100.00;101002.09;4998639;28;20045;-76
2023/04/25 09:17:01;;;;;;;13.73;2.95;;;;;;;9.18;100.00;100992.59;4990255;28;20083;-75
2023/04/25 09:19:35;;;;;;;12.68;3.05;;;;;;;9.15;100.00;100998.16;4988538;28;20046;-75
2023/04/25 09:22:07;;;;;;;12.60;2.53;;;;;;;9.20;100.00;101001.31;4995982;28;20457;-76
2023/04/25 09:24:49;;;;;;;7.35;2.40;;;;;;;9.27;100.00;101001.28;4995061;28;20081;-74
2023/04/25 09:27:26;;;;;;;13.40;2.47;;;;;;;9.31;100.00;101006.81;4989138;28;20061;-76
2023/04/25 09:29:59;;;;;;;10.05;2.17;;;;;;;9.27;100.00;101004.06;5000096;28;20057;-76
2023/04/25 09:32:26;;;;;;;10.80;2.20;;;;;;;9.32;100.00;101002.88;5000986;28;20043;-76
2023/04/25 09:34:57;;;;;;;9.05;1.50;;;;;;;9.46;100.00;101014.69;4989365;28;20061;-75
2023/04/25 09:37:25;;;;;;;6.70;1.45;;;;;;;9.48;100.00;101006.75;4988955;28;20061;-75
2023/04/25 09:40:02;;;;;;;12.20;2.33;;;;;;;9.58;100.00;101007.88;4992570;28;20052;-77
2023/04/25 09:42:31;;;;;;;8.68;1.80;;;;;;;9.61;100.00;101009.88;4989100;28;20089;-77
2023/04/25 09:44:58;;;;;;;13.23;2.75;;;;;;;9.71;100.00;101009.81;4992991;28;20050;-76
2023/04/25 09:47:26;;;;;;;7.90;2.13;;;;;;;9.67;100.00;101013.81;5017130;28;20509;-75
2023/04/25 09:49:54;;;;;;;10.65;1.85;;;;;;;9.78;100.00;101020.09;4989560;28;20052;-76
2023/04/25 09:52:23;;;;;;;12.10;1.80;;;;;;;9.87;100.00;101017.66;4995473;28;20120;-75
2023/04/25 09:54:52;;;;;;;8.60;1.30;;;;;;;10.00;98.86;101030.69;4997211;28;20587;-76
2023/04/25 09:57:20;;;;;;;11.70;2.60;;;;;;;10.31;100.00;101020.59;4988117;28;20121;-76
2023/04/25 09:59:52;;;;;;;3.10;1.10;;;;;;;10.42;96.98;101029.63;4982562;28;20061;-70
2023/04/25 10:02:21;;;;;;;5.10;1.13;;;;;;;10.57;96.52;101022.72;4993007;28;20497;-75
2023/04/25 10:04:51;;;;;;;10.35;2.00;;;;;;;10.63;88.94;101031.44;4997091;28;20058;-75
2023/04/25 10:07:18;;;;;;;12.90;2.97;;;;;;;10.64;91.09;101028.25;4999308;28;20050;-75
2023/04/25 10:09:49;;;;;;;4.90;1.30;;;;;;;10.52;88.41;101031.53;4991414;28;20050;-76
2023/04/25 10:12:16;;;;;;;4.07;0.95;;;;;;;10.40;88.12;101034.78;4991455;28;20050;-76
2023/04/25 10:14:43;;;;;;;7.18;1.58;;;;;;;10.29;87.12;101034.09;4982563;28;20058;-76
2023/04/25 10:17:14;;;;;;;6.60;1.70;;;;;;;10.09;89.16;101043.38;4985948;28;20050;-76
2023/04/25 10:19:40;;;;;;;9.30;2.03;;;;;;;9.87;93.83;101046.22;4981824;28;20053;-76
2023/04/25 10:22:12;;;;;;;14.35;2.40;;;;;;;9.64;95.82;101042.38;4983903;28;20168;-75
2023/04/25 10:24:40;;;;;;;6.53;1.85;;;;;;;9.48;98.38;101050.34;4981015;28;20521;-77
2023/04/25 10:27:07;;;;;;;13.15;2.00;;;;;;;9.41;96.95;101050.38;4983223;28;20053;-77
2023/04/25 10:29:35;;;;;;;5.65;1.77;;;;;;;9.36;96.23;101056.34;4981515;28;20164;-76
2023/04/25 10:32:02;;;;;;;12.27;1.77;;;;;;;9.37;99.49;101058.75;4987722;28;20064;-75
2023/04/25 10:34:43;;;;;;;2.15;1.30;;;;;;;9.14;100.00;101068.69;5000988;28;20535;-76
2023/04/25 10:37:11;;;;;;;8.85;2.28;;;;;;;9.04;100.00;101073.06;4995553;28;20436;-76
2023/04/25 10:39:41;;;;;;;4.18;1.10;;;;;;;8.84;100.00;101083.00;4996174;28;20050;-76
2023/04/25 10:42:08;;;;;;;8.00;1.58;;;;;;;8.72;100.00;101082.59;5000776;28;20046;-75
2023/04/25 10:44:38;;;;;;;7.47;2.05;;;;;;;8.65;100.00;101093.69;4988361;28;20509;-74
2023/04/25 10:47:07;;;;;;;2.85;0.98;;;;;;;8.47;100.00;101090.09;5002008;28;20153;-76
2023/04/25 10:49:40;;;;;;;5.43;1.65;;;;;;;8.25;100.00;101088.47;4994058;28;20050;-76
2023/04/25 10:52:15;;;;;;;6.35;1.35;;;;;;;8.15;100.00;101095.56;4992255;28;20042;-76
2023/04/25 10:54:45;;;;;;;3.38;1.27;;;;;;;8.05;100.00;101112.13;5003850;28;20058;-75
2023/04/25 10:57:39;;;;;;;8.77;2.25;;;;;;;7.65;100.00;101113.16;4998491;28;20050;-75
2023/04/25 11:00:12;;;;;;;9.13;2.22;;;;;;;7.39;100.00;101108.69;4992859;28;20551;-75
2023/04/25 11:02:52;;;;;;;11.05;2.40;;;;;;;7.31;100.00;101107.06;4994251;28;20527;-74
2023/04/25 11:05:40;;;;;;;13.93;2.40;;;;;;;7.37;100.00;101101.97;4997763;28;20129;-75
2023/04/25 11:08:50;;;;;;;7.65;1.92;;;;;;;7.45;100.00;101090.53;5002637;28;20053;-75
2023/04/25 11:11:18;;;;;;;9.88;2.67;;;;;;;7.54;100.00;101087.44;4995331;28;20419;-75
2023/04/25 11:13:49;;;;;;;9.98;2.22;;;;;;;7.43;100.00;101095.66;5003790;28;20103;-75
2023/04/25 11:16:17;;;;;;;9.50;1.90;;;;;;;7.46;100.00;101088.56;5000662;28;20057;-74
2023/04/25 11:18:53;;;;;;;3.13;1.08;;;;;;;7.30;100.00;101093.63;5000035;28;20086;-75
2023/04/25 11:21:19;;;;;;;3.47;1.10;;;;;;;7.33;100.00;101095.63;5000133;28;20050;-74
2023/04/25 11:23:46;;;;;;;10.57;2.28;;;;;;;7.21;100.00;101096.72;4998273;28;20052;-75